Pagrindinis puslapis
METAR-TAF:

METAR-TAF

Oro uostai :

Kiurasao, Nyderlandų Antilai

platuma: 12-12N, ilguma: 068-58W, Aukštis: 9 m

Dabartinis oras

Ataskaita buvo paskelbta 15 minutes, ne 05:00 UTC
Vėjas 9 kt iš Rytų
Temperatūra 26°C
Drėgmė 74%
Slėgis 1014 hPa
Matomumas 10 km arba daugiau
Išsisklaidę debesys ne aukštis 2600 ft

METAR: TNCC 230500Z AUTO 10009KT 9999 SCT026 26/21 Q1014

Laikas: 01:15 (05:15 UTC)

Prognozė

Ataskaita buvo paskelbta 6 valandos ir 0 minutes, ne 23:15 UTC
Prognozė galioja nuo 23 metu 00 UTC su 23 metu 24 UTC
Vėjas 10 kt iš Rytų
Matomumas 10 km arba daugiau
Išsisklaidę debesys ne aukštis 2200 ft

TAF: TNCC 222315Z 2300/2324 10010KT 9999 SCT022

Orai ataskaitas ir orų prognozės (METAR, TAF).

turimą stotys yra geltonos ir raudonos taškus žemėlapyje.

Perkelti pele per norėdami pamatyti stoties vardą.

Tada spustelėkite, norėdami matyti oro stebėjimo ir prognozės.

Norėdami pakeisti žemėlapį: spustelėkite ant žalios mygtukų su juodo kryžiaus žemyn,; žalią mygtuką su brūkšneliu, jei norite nutolinti; arba žalių rodyklių gretimoms žemėlapius.


METAR-TAF: